sensor_id;sensor_type;location;lat;lon;timestamp;pressure;altitude;pressure_sealevel;temperature;humidity
6090;BME280;3073;42.660;23.316;2023-02-11T00:01:06;96153.72;;;-1.77;97.61
6090;BME280;3073;42.660;23.316;2023-02-11T00:03:35;96156.59;;;-1.93;95.90
6090;BME280;3073;42.660;23.316;2023-02-11T00:06:05;96157.50;;;-1.83;95.18
6090;BME280;3073;42.660;23.316;2023-02-11T00:08:33;96164.66;;;-1.78;95.14
6090;BME280;3073;42.660;23.316;2023-02-11T00:11:01;96151.59;;;-1.82;95.23
6090;BME280;3073;42.660;23.316;2023-02-11T00:13:28;96158.41;;;-1.84;95.97
6090;BME280;3073;42.660;23.316;2023-02-11T00:15:55;96150.84;;;-1.73;93.92
6090;BME280;3073;42.660;23.316;2023-02-11T00:18:22;96159.97;;;-1.72;92.87
6090;BME280;3073;42.660;23.316;2023-02-11T00:20:50;96157.50;;;-1.83;94.26
6090;BME280;3073;42.660;23.316;2023-02-11T00:23:18;96164.88;;;-1.81;93.71
6090;BME280;3073;42.660;23.316;2023-02-11T00:25:44;96165.13;;;-1.84;93.59
6090;BME280;3073;42.660;23.316;2023-02-11T00:28:12;96163.44;;;-1.95;94.26
6090;BME280;3073;42.660;23.316;2023-02-11T00:30:38;96159.97;;;-2.15;95.76
6090;BME280;3073;42.660;23.316;2023-02-11T00:33:05;96154.84;;;-2.13;97.43
6090;BME280;3073;42.660;23.316;2023-02-11T00:35:32;96153.63;;;-2.30;99.43
6090;BME280;3073;42.660;23.316;2023-02-11T00:38:00;96152.28;;;-2.34;98.70
6090;BME280;3073;42.660;23.316;2023-02-11T00:40:27;96152.41;;;-2.46;100.00
6090;BME280;3073;42.660;23.316;2023-02-11T00:42:54;96154.66;;;-2.32;99.64
6090;BME280;3073;42.660;23.316;2023-02-11T00:45:21;96153.38;;;-2.27;97.46
6090;BME280;3073;42.660;23.316;2023-02-11T00:47:47;96150.59;;;-2.44;97.48
6090;BME280;3073;42.660;23.316;2023-02-11T00:50:14;96150.13;;;-2.38;96.21
6090;BME280;3073;42.660;23.316;2023-02-11T00:52:41;96139.56;;;-2.31;96.31
6090;BME280;3073;42.660;23.316;2023-02-11T00:55:09;96141.22;;;-2.20;95.94
6090;BME280;3073;42.660;23.316;2023-02-11T00:57:36;96147.88;;;-2.30;95.58
6090;BME280;3073;42.660;23.316;2023-02-11T01:00:04;96139.91;;;-2.35;95.44
6090;BME280;3073;42.660;23.316;2023-02-11T01:02:32;96133.72;;;-2.20;95.29
6090;BME280;3073;42.660;23.316;2023-02-11T01:04:59;96138.06;;;-2.22;94.65
6090;BME280;3073;42.660;23.316;2023-02-11T01:07:26;96137.50;;;-2.26;94.46
6090;BME280;3073;42.660;23.316;2023-02-11T01:09:53;96136.47;;;-2.23;94.92
6090;BME280;3073;42.660;23.316;2023-02-11T01:12:22;96135.13;;;-2.38;94.30
6090;BME280;3073;42.660;23.316;2023-02-11T01:14:49;96140.81;;;-2.36;95.37
6090;BME280;3073;42.660;23.316;2023-02-11T01:17:16;96141.75;;;-2.37;95.08
6090;BME280;3073;42.660;23.316;2023-02-11T01:19:43;96132.53;;;-2.70;96.07
6090;BME280;3073;42.660;23.316;2023-02-11T01:22:09;96128.47;;;-2.60;95.64
6090;BME280;3073;42.660;23.316;2023-02-11T01:24:36;96129.81;;;-2.56;95.46
6090;BME280;3073;42.660;23.316;2023-02-11T01:27:03;96134.09;;;-2.36;95.10
6090;BME280;3073;42.660;23.316;2023-02-11T01:29:31;96141.97;;;-2.40;94.52
6090;BME280;3073;42.660;23.316;2023-02-11T01:31:58;96129.91;;;-2.35;93.77
6090;BME280;3073;42.660;23.316;2023-02-11T01:34:25;96135.84;;;-2.47;94.00
6090;BME280;3073;42.660;23.316;2023-02-11T01:36:55;96125.19;;;-2.61;95.07
6090;BME280;3073;42.660;23.316;2023-02-11T01:39:22;96124.25;;;-2.60;95.63
6090;BME280;3073;42.660;23.316;2023-02-11T01:41:49;96124.81;;;-2.56;96.46
6090;BME280;3073;42.660;23.316;2023-02-11T01:44:27;96130.19;;;-2.72;97.29
6090;BME280;3073;42.660;23.316;2023-02-11T01:46:56;96116.34;;;-2.65;97.82
6090;BME280;3073;42.660;23.316;2023-02-11T01:49:26;96117.91;;;-2.52;97.33
6090;BME280;3073;42.660;23.316;2023-02-11T01:51:57;96121.31;;;-2.76;98.69
6090;BME280;3073;42.660;23.316;2023-02-11T01:54:29;96123.47;;;-2.60;98.55
6090;BME280;3073;42.660;23.316;2023-02-11T01:57:17;96121.91;;;-2.61;97.62
6090;BME280;3073;42.660;23.316;2023-02-11T01:59:55;96121.91;;;-2.61;98.01
6090;BME280;3073;42.660;23.316;2023-02-11T02:02:27;96117.47;;;-2.57;96.69
6090;BME280;3073;42.660;23.316;2023-02-11T02:04:59;96112.81;;;-2.62;97.26
6090;BME280;3073;42.660;23.316;2023-02-11T02:07:35;96117.47;;;-2.57;97.23
6090;BME280;3073;42.660;23.316;2023-02-11T02:10:10;96126.53;;;-2.56;96.25
6090;BME280;3073;42.660;23.316;2023-02-11T02:12:39;96121.56;;;-2.68;96.88
6090;BME280;3073;42.660;23.316;2023-02-11T02:15:34;96119.41;;;-2.61;98.17
6090;BME280;3073;42.660;23.316;2023-02-11T02:18:12;96119.41;;;-2.72;96.94
6090;BME280;3073;42.660;23.316;2023-02-11T02:21:08;96120.66;;;-2.89;98.44
6090;BME280;3073;42.660;23.316;2023-02-11T02:27:05;96117.81;;;-2.84;98.84
6090;BME280;3073;42.660;23.316;2023-02-11T02:29:55;96123.16;;;-2.78;98.82
6090;BME280;3073;42.660;23.316;2023-02-11T02:32:42;96122.81;;;-2.95;98.65
6090;BME280;3073;42.660;23.316;2023-02-11T02:35:23;96117.25;;;-2.99;99.78
6090;BME280;3073;42.660;23.316;2023-02-11T02:37:58;96123.69;;;-2.96;99.83
6090;BME280;3073;42.660;23.316;2023-02-11T02:40:30;96121.34;;;-2.98;99.57
6090;BME280;3073;42.660;23.316;2023-02-11T02:43:00;96109.63;;;-3.20;98.64
6090;BME280;3073;42.660;23.316;2023-02-11T02:45:27;96111.56;;;-3.12;96.71
6090;BME280;3073;42.660;23.316;2023-02-11T02:47:55;96110.91;;;-3.14;95.76
6090;BME280;3073;42.660;23.316;2023-02-11T02:50:26;96115.44;;;-3.08;95.22
6090;BME280;3073;42.660;23.316;2023-02-11T02:53:05;96111.47;;;-3.10;94.01
6090;BME280;3073;42.660;23.316;2023-02-11T02:55:53;96113.38;;;-3.14;92.65
6090;BME280;3073;42.660;23.316;2023-02-11T03:01:20;96121.78;;;-3.04;94.78
6090;BME280;3073;42.660;23.316;2023-02-11T03:04:00;96117.00;;;-3.18;95.16
6090;BME280;3073;42.660;23.316;2023-02-11T03:06:33;96118.81;;;-3.09;96.36
6090;BME280;3073;42.660;23.316;2023-02-11T03:09:06;96122.22;;;-3.21;95.49
6090;BME280;3073;42.660;23.316;2023-02-11T03:11:36;96111.78;;;-3.26;96.38
6090;BME280;3073;42.660;23.316;2023-02-11T03:14:05;96116.44;;;-3.22;96.15
6090;BME280;3073;42.660;23.316;2023-02-11T03:16:33;96113.72;;;-3.19;96.71
6090;BME280;3073;42.660;23.316;2023-02-11T03:19:08;96122.91;;;-3.19;96.06
6090;BME280;3073;42.660;23.316;2023-02-11T03:21:38;96127.91;;;-3.08;96.53
6090;BME280;3073;42.660;23.316;2023-02-11T03:24:08;96115.66;;;-3.11;95.10
6090;BME280;3073;42.660;23.316;2023-02-11T03:26:40;96117.47;;;-3.24;96.30
6090;BME280;3073;42.660;23.316;2023-02-11T03:29:13;96121.19;;;-3.41;97.61
6090;BME280;3073;42.660;23.316;2023-02-11T03:31:48;96117.44;;;-3.35;98.87
6090;BME280;3073;42.660;23.316;2023-02-11T03:34:23;96111.91;;;-3.28;98.00
6090;BME280;3073;42.660;23.316;2023-02-11T03:36:54;96108.84;;;-3.09;97.07
6090;BME280;3073;42.660;23.316;2023-02-11T03:39:26;96113.38;;;-3.03;96.07
6090;BME280;3073;42.660;23.316;2023-02-11T03:41:56;96116.13;;;-3.17;97.86
6090;BME280;3073;42.660;23.316;2023-02-11T03:44:29;96104.66;;;-3.08;96.54
6090;BME280;3073;42.660;23.316;2023-02-11T03:46:59;96112.25;;;-3.10;96.50
6090;BME280;3073;42.660;23.316;2023-02-11T03:49:31;96107.69;;;-3.16;98.49
6090;BME280;3073;42.660;23.316;2023-02-11T03:52:00;96109.84;;;-3.23;97.64
6090;BME280;3073;42.660;23.316;2023-02-11T03:54:30;96109.41;;;-3.28;98.53
6090;BME280;3073;42.660;23.316;2023-02-11T03:56:59;96107.94;;;-3.19;98.49
6090;BME280;3073;42.660;23.316;2023-02-11T03:59:27;96103.97;;;-3.22;98.71
6090;BME280;3073;42.660;23.316;2023-02-11T04:01:54;96106.22;;;-3.30;99.30
6090;BME280;3073;42.660;23.316;2023-02-11T04:04:22;96110.63;;;-3.33;100.00
6090;BME280;3073;42.660;23.316;2023-02-11T04:06:50;96109.28;;;-3.37;99.18
6090;BME280;3073;42.660;23.316;2023-02-11T04:09:17;96109.97;;;-3.35;99.28
6090;BME280;3073;42.660;23.316;2023-02-11T04:11:44;96108.47;;;-3.38;99.74
6090;BME280;3073;42.660;23.316;2023-02-11T04:14:12;96109.84;;;-3.34;100.00
6090;BME280;3073;42.660;23.316;2023-02-11T04:16:39;96108.81;;;-3.42;100.00
6090;BME280;3073;42.660;23.316;2023-02-11T04:19:06;96120.38;;;-3.41;100.00
6090;BME280;3073;42.660;23.316;2023-02-11T04:21:34;96111.19;;;-3.41;100.00
6090;BME280;3073;42.660;23.316;2023-02-11T04:24:02;96115.34;;;-3.52;100.00
6090;BME280;3073;42.660;23.316;2023-02-11T04:26:29;96112.91;;;-3.41;100.00
6090;BME280;3073;42.660;23.316;2023-02-11T04:28:58;96107.56;;;-3.48;100.00
6090;BME280;3073;42.660;23.316;2023-02-11T04:31:25;96108.81;;;-3.42;100.00
6090;BME280;3073;42.660;23.316;2023-02-11T04:33:52;96108.81;;;-3.42;100.00
6090;BME280;3073;42.660;23.316;2023-02-11T04:36:18;96104.50;;;-3.40;100.00
6090;BME280;3073;42.660;23.316;2023-02-11T04:38:45;96106.97;;;-3.51;100.00
6090;BME280;3073;42.660;23.316;2023-02-11T04:41:13;96093.03;;;-3.54;100.00
6090;BME280;3073;42.660;23.316;2023-02-11T04:43:40;96095.97;;;-3.49;100.00
6090;BME280;3073;42.660;23.316;2023-02-11T04:46:07;96093.63;;;-3.50;100.00
6090;BME280;3073;42.660;23.316;2023-02-11T04:48:34;96099.94;;;-3.46;100.00
6090;BME280;3073;42.660;23.316;2023-02-11T04:51:01;96102.66;;;-3.49;100.00
6090;BME280;3073;42.660;23.316;2023-02-11T04:53:27;96099.06;;;-3.45;100.00
6090;BME280;3073;42.660;23.316;2023-02-11T04:55:54;96104.00;;;-3.56;100.00
6090;BME280;3073;42.660;23.316;2023-02-11T04:58:22;96102.53;;;-3.59;100.00
6090;BME280;3073;42.660;23.316;2023-02-11T05:00:49;96094.22;;;-3.82;100.00
6090;BME280;3073;42.660;23.316;2023-02-11T05:03:16;96098.56;;;-3.61;100.00
6090;BME280;3073;42.660;23.316;2023-02-11T05:05:43;96095.38;;;-3.75;100.00
6090;BME280;3073;42.660;23.316;2023-02-11T05:08:11;96102.31;;;-3.67;100.00
6090;BME280;3073;42.660;23.316;2023-02-11T05:10:38;96088.34;;;-3.70;100.00
6090;BME280;3073;42.660;23.316;2023-02-11T05:13:04;96096.28;;;-3.65;100.00
6090;BME280;3073;42.660;23.316;2023-02-11T05:15:32;96083.34;;;-3.70;100.00
6090;BME280;3073;42.660;23.316;2023-02-11T05:17:59;96080.19;;;-3.72;100.00
6090;BME280;3073;42.660;23.316;2023-02-11T05:20:26;96083.56;;;-3.73;100.00
6090;BME280;3073;42.660;23.316;2023-02-11T05:22:53;96081.97;;;-3.85;100.00
6090;BME280;3073;42.660;23.316;2023-02-11T05:25:19;96084.78;;;-3.89;100.00
6090;BME280;3073;42.660;23.316;2023-02-11T05:27:46;96091.66;;;-3.93;100.00
6090;BME280;3073;42.660;23.316;2023-02-11T05:30:13;96091.13;;;-3.85;100.00
6090;BME280;3073;42.660;23.316;2023-02-11T05:32:42;96091.56;;;-3.91;100.00
6090;BME280;3073;42.660;23.316;2023-02-11T05:35:09;96085.47;;;-3.87;100.00
6090;BME280;3073;42.660;23.316;2023-02-11T05:37:36;96085.25;;;-3.84;100.00
6090;BME280;3073;42.660;23.316;2023-02-11T05:40:03;96084.41;;;-3.96;100.00
6090;BME280;3073;42.660;23.316;2023-02-11T05:42:31;96083.28;;;-3.92;100.00
6090;BME280;3073;42.660;23.316;2023-02-11T05:44:57;96085.31;;;-3.97;100.00
6090;BME280;3073;42.660;23.316;2023-02-11T05:47:24;96082.63;;;-3.83;100.00
6090;BME280;3073;42.660;23.316;2023-02-11T05:49:52;96090.69;;;-3.90;100.00
6090;BME280;3073;42.660;23.316;2023-02-11T05:52:21;96098.72;;;-3.87;100.00
6090;BME280;3073;42.660;23.316;2023-02-11T05:54:49;96090.03;;;-3.81;100.00
6090;BME280;3073;42.660;23.316;2023-02-11T05:57:16;96093.53;;;-3.73;100.00
6090;BME280;3073;42.660;23.316;2023-02-11T05:59:43;96085.38;;;-3.75;100.00
6090;BME280;3073;42.660;23.316;2023-02-11T06:02:09;96100.16;;;-3.60;100.00
6090;BME280;3073;42.660;23.316;2023-02-11T06:04:36;96097.94;;;-3.76;100.00
6090;BME280;3073;42.660;23.316;2023-02-11T06:07:04;96104.31;;;-3.72;100.00
6090;BME280;3073;42.660;23.316;2023-02-11T06:09:31;96103.44;;;-3.60;100.00
6090;BME280;3073;42.660;23.316;2023-02-11T06:11:59;96100.63;;;-3.55;100.00
6090;BME280;3073;42.660;23.316;2023-02-11T06:14:26;96100.16;;;-3.49;100.00
6090;BME280;3073;42.660;23.316;2023-02-11T06:16:53;96110.56;;;-3.21;100.00
6090;BME280;3073;42.660;23.316;2023-02-11T06:19:20;96109.28;;;-2.93;100.00
6090;BME280;3073;42.660;23.316;2023-02-11T06:21:50;96104.84;;;-2.56;100.00
6090;BME280;3073;42.660;23.316;2023-02-11T06:24:22;96111.50;;;-2.34;97.55
6090;BME280;3073;42.660;23.316;2023-02-11T06:26:49;96116.41;;;-2.01;91.86
6090;BME280;3073;42.660;23.316;2023-02-11T06:29:15;96105.91;;;-1.84;87.98
6090;BME280;3073;42.660;23.316;2023-02-11T06:31:44;96107.06;;;-1.46;86.73
6090;BME280;3073;42.660;23.316;2023-02-11T06:34:14;96102.34;;;-1.19;83.74
6090;BME280;3073;42.660;23.316;2023-02-11T06:36:41;96110.53;;;-0.87;79.25
6090;BME280;3073;42.660;23.316;2023-02-11T06:39:11;96114.53;;;-0.75;76.78
6090;BME280;3073;42.660;23.316;2023-02-11T06:41:39;96103.13;;;-0.58;75.90
6090;BME280;3073;42.660;23.316;2023-02-11T06:44:06;96110.72;;;-0.69;74.23
6090;BME280;3073;42.660;23.316;2023-02-11T06:46:38;96106.63;;;-0.30;72.49
6090;BME280;3073;42.660;23.316;2023-02-11T06:49:18;96116.66;;;-0.11;71.06
6090;BME280;3073;42.660;23.316;2023-02-11T06:51:46;96119.44;;;0.34;69.69
6090;BME280;3073;42.660;23.316;2023-02-11T06:54:13;96119.59;;;0.13;68.77
6090;BME280;3073;42.660;23.316;2023-02-11T06:56:43;96118.25;;;0.28;68.15
6090;BME280;3073;42.660;23.316;2023-02-11T06:59:14;96116.41;;;0.49;66.95
6090;BME280;3073;42.660;23.316;2023-02-11T07:01:41;96113.34;;;0.65;65.58
6090;BME280;3073;42.660;23.316;2023-02-11T07:04:08;96110.94;;;0.83;65.47
6090;BME280;3073;42.660;23.316;2023-02-11T07:06:35;96114.41;;;0.63;65.49
6090;BME280;3073;42.660;23.316;2023-02-11T07:09:04;96117.13;;;1.25;64.16
6090;BME280;3073;42.660;23.316;2023-02-11T07:11:35;96110.84;;;1.39;63.45
6090;BME280;3073;42.660;23.316;2023-02-11T07:14:04;96115.69;;;1.23;62.36
6090;BME280;3073;42.660;23.316;2023-02-11T07:16:36;96105.53;;;1.42;61.67
6090;BME280;3073;42.660;23.316;2023-02-11T07:19:04;96108.56;;;1.73;62.10
6090;BME280;3073;42.660;23.316;2023-02-11T07:21:32;96103.47;;;2.18;59.55
6090;BME280;3073;42.660;23.316;2023-02-11T07:24:00;96103.81;;;1.15;60.35
6090;BME280;3073;42.660;23.316;2023-02-11T07:26:27;96097.38;;;0.47;62.49
6090;BME280;3073;42.660;23.316;2023-02-11T07:28:54;96094.94;;;0.74;64.04
6090;BME280;3073;42.660;23.316;2023-02-11T07:31:24;96094.03;;;1.67;62.77
6090;BME280;3073;42.660;23.316;2023-02-11T07:33:53;96079.16;;;2.08;60.22
6090;BME280;3073;42.660;23.316;2023-02-11T07:36:21;96083.97;;;2.37;59.35
6090;BME280;3073;42.660;23.316;2023-02-11T07:38:49;96084.13;;;2.62;58.31
6090;BME280;3073;42.660;23.316;2023-02-11T07:41:18;96081.22;;;3.00;57.96
6090;BME280;3073;42.660;23.316;2023-02-11T07:43:46;96075.38;;;2.74;56.72
6090;BME280;3073;42.660;23.316;2023-02-11T07:46:17;96068.69;;;2.90;56.88
6090;BME280;3073;42.660;23.316;2023-02-11T07:48:45;96076.94;;;2.23;56.29
6090;BME280;3073;42.660;23.316;2023-02-11T07:51:13;96072.00;;;2.83;56.86
6090;BME280;3073;42.660;23.316;2023-02-11T07:53:41;96071.31;;;3.48;55.42
6090;BME280;3073;42.660;23.316;2023-02-11T07:56:09;96071.22;;;3.24;54.72
6090;BME280;3073;42.660;23.316;2023-02-11T07:58:37;96075.28;;;3.09;55.47
6090;BME280;3073;42.660;23.316;2023-02-11T08:01:08;96072.84;;;3.33;54.59
6090;BME280;3073;42.660;23.316;2023-02-11T08:03:35;96073.84;;;3.48;54.46
6090;BME280;3073;42.660;23.316;2023-02-11T08:06:05;96074.59;;;3.41;54.27
6090;BME280;3073;42.660;23.316;2023-02-11T08:08:33;96065.78;;;3.45;53.37
6090;BME280;3073;42.660;23.316;2023-02-11T08:11:05;96068.00;;;4.30;52.05
6090;BME280;3073;42.660;23.316;2023-02-11T08:13:33;96070.75;;;4.84;50.72
6090;BME280;3073;42.660;23.316;2023-02-11T08:16:00;96064.81;;;3.30;51.89
6090;BME280;3073;42.660;23.316;2023-02-11T08:18:27;96062.59;;;4.41;51.41
6090;BME280;3073;42.660;23.316;2023-02-11T08:20:54;96059.97;;;5.06;50.06
6090;BME280;3073;42.660;23.316;2023-02-11T08:23:22;96061.09;;;5.34;49.00
6090;BME280;3073;42.660;23.316;2023-02-11T08:25:50;96065.28;;;5.81;48.27
6090;BME280;3073;42.660;23.316;2023-02-11T08:28:17;96064.44;;;4.80;48.79
6090;BME280;3073;42.660;23.316;2023-02-11T08:30:43;96061.28;;;4.78;50.14
6090;BME280;3073;42.660;23.316;2023-02-11T08:33:10;96054.56;;;5.09;50.40
6090;BME280;3073;42.660;23.316;2023-02-11T08:35:37;96064.94;;;5.30;48.90
6090;BME280;3073;42.660;23.316;2023-02-11T08:38:04;96065.53;;;4.93;49.39
6090;BME280;3073;42.660;23.316;2023-02-11T08:40:32;96065.44;;;3.90;51.44
6090;BME280;3073;42.660;23.316;2023-02-11T08:42:59;96064.09;;;4.99;50.08
6090;BME280;3073;42.660;23.316;2023-02-11T08:45:26;96066.63;;;5.38;50.09
6090;BME280;3073;42.660;23.316;2023-02-11T08:47:53;96066.78;;;6.20;48.18
6090;BME280;3073;42.660;23.316;2023-02-11T08:50:20;96065.19;;;6.05;48.44
6090;BME280;3073;42.660;23.316;2023-02-11T08:52:47;96057.22;;;6.53;47.81
6090;BME280;3073;42.660;23.316;2023-02-11T08:55:15;96068.44;;;6.73;47.90
6090;BME280;3073;42.660;23.316;2023-02-11T08:57:43;96067.59;;;6.21;48.16
6090;BME280;3073;42.660;23.316;2023-02-11T09:00:11;96070.19;;;6.13;49.88
6090;BME280;3073;42.660;23.316;2023-02-11T09:02:38;96075.84;;;6.00;49.29
6090;BME280;3073;42.660;23.316;2023-02-11T09:05:06;96065.72;;;6.75;48.36
6090;BME280;3073;42.660;23.316;2023-02-11T09:07:33;96063.94;;;6.01;48.83
6090;BME280;3073;42.660;23.316;2023-02-11T09:09:59;96061.53;;;6.82;47.15
6090;BME280;3073;42.660;23.316;2023-02-11T09:12:26;96056.00;;;7.08;46.99
6090;BME280;3073;42.660;23.316;2023-02-11T09:14:55;96056.97;;;6.92;45.91
6090;BME280;3073;42.660;23.316;2023-02-11T09:17:22;96051.25;;;7.34;45.74
6090;BME280;3073;42.660;23.316;2023-02-11T09:19:49;96052.63;;;7.66;44.55
6090;BME280;3073;42.660;23.316;2023-02-11T09:22:16;96042.25;;;7.67;45.32
6090;BME280;3073;42.660;23.316;2023-02-11T09:24:43;96053.31;;;7.09;44.23
6090;BME280;3073;42.660;23.316;2023-02-11T09:27:09;96046.41;;;7.03;44.42
6090;BME280;3073;42.660;23.316;2023-02-11T09:29:36;96049.91;;;7.17;45.10
6090;BME280;3073;42.660;23.316;2023-02-11T09:32:04;96040.88;;;7.14;45.46
6090;BME280;3073;42.660;23.316;2023-02-11T09:34:32;96047.81;;;8.13;44.29
6090;BME280;3073;42.660;23.316;2023-02-11T09:36:58;96037.38;;;8.08;43.82
6090;BME280;3073;42.660;23.316;2023-02-11T09:39:25;96032.66;;;8.75;42.36
6090;BME280;3073;42.660;23.316;2023-02-11T09:42:19;96033.69;;;9.22;41.56
6090;BME280;3073;42.660;23.316;2023-02-11T09:44:52;96031.44;;;7.08;44.23
6090;BME280;3073;42.660;23.316;2023-02-11T09:47:24;96027.06;;;5.98;44.83
6090;BME280;3073;42.660;23.316;2023-02-11T09:49:57;96023.59;;;7.39;44.35
6090;BME280;3073;42.660;23.316;2023-02-11T09:52:32;96013.66;;;8.44;42.88
6090;BME280;3073;42.660;23.316;2023-02-11T09:55:04;96009.53;;;9.11;41.54
6090;BME280;3073;42.660;23.316;2023-02-11T09:57:35;96001.59;;;7.10;42.94
6090;BME280;3073;42.660;23.316;2023-02-11T10:00:16;96002.56;;;7.09;44.85
6090;BME280;3073;42.660;23.316;2023-02-11T10:02:55;95999.09;;;8.59;42.60
6090;BME280;3073;42.660;23.316;2023-02-11T10:05:32;95995.66;;;8.45;42.12
6090;BME280;3073;42.660;23.316;2023-02-11T10:08:07;95978.53;;;8.95;41.30
6090;BME280;3073;42.660;23.316;2023-02-11T10:10:46;95984.69;;;9.13;40.62
6090;BME280;3073;42.660;23.316;2023-02-11T10:13:29;95975.88;;;10.03;38.69
6090;BME280;3073;42.660;23.316;2023-02-11T10:16:05;95970.50;;;10.90;38.10
6090;BME280;3073;42.660;23.316;2023-02-11T10:18:50;95962.69;;;10.65;37.33
6090;BME280;3073;42.660;23.316;2023-02-11T10:21:29;95963.28;;;10.67;37.29
6090;BME280;3073;42.660;23.316;2023-02-11T10:23:59;95952.72;;;10.11;37.72
6090;BME280;3073;42.660;23.316;2023-02-11T10:26:30;95939.78;;;10.32;36.79
6090;BME280;3073;42.660;23.316;2023-02-11T10:29:01;95936.63;;;9.71;37.02
6090;BME280;3073;42.660;23.316;2023-02-11T10:31:36;95927.22;;;9.91;37.50
6090;BME280;3073;42.660;23.316;2023-02-11T10:34:09;95926.03;;;10.46;36.51
6090;BME280;3073;42.660;23.316;2023-02-11T10:36:39;95920.75;;;9.69;37.41
6090;BME280;3073;42.660;23.316;2023-02-11T10:39:12;95913.09;;;9.49;37.65
6090;BME280;3073;42.660;23.316;2023-02-11T10:41:42;95911.91;;;9.58;36.66
6090;BME280;3073;42.660;23.316;2023-02-11T10:44:19;95898.03;;;10.20;36.13
6090;BME280;3073;42.660;23.316;2023-02-11T10:46:48;95893.91;;;9.66;37.56
6090;BME280;3073;42.660;23.316;2023-02-11T10:49:39;95893.09;;;9.59;37.02
6090;BME280;3073;42.660;23.316;2023-02-11T10:52:16;95882.34;;;11.18;35.73
6090;BME280;3073;42.660;23.316;2023-02-11T10:54:55;95882.72;;;9.87;37.00
6090;BME280;3073;42.660;23.316;2023-02-11T10:57:26;95871.38;;;8.76;36.44
6090;BME280;3073;42.660;23.316;2023-02-11T10:59:57;95874.34;;;8.80;37.01
6090;BME280;3073;42.660;23.316;2023-02-11T11:02:28;95872.06;;;8.57;37.41
6090;BME280;3073;42.660;23.316;2023-02-11T11:05:02;95866.66;;;9.60;36.84
6090;BME280;3073;42.660;23.316;2023-02-11T11:07:32;95863.66;;;9.24;37.86
6090;BME280;3073;42.660;23.316;2023-02-11T11:10:02;95869.31;;;6.99;40.18
6090;BME280;3073;42.660;23.316;2023-02-11T11:12:35;95860.47;;;6.73;40.50
6090;BME280;3073;42.660;23.316;2023-02-11T11:15:17;95859.16;;;8.52;39.31
6090;BME280;3073;42.660;23.316;2023-02-11T11:17:46;95863.09;;;9.61;38.49
6090;BME280;3073;42.660;23.316;2023-02-11T11:20:20;95845.81;;;10.22;36.84
6090;BME280;3073;42.660;23.316;2023-02-11T11:22:49;95845.44;;;10.76;37.15
6090;BME280;3073;42.660;23.316;2023-02-11T11:25:24;95842.50;;;10.02;37.28
6090;BME280;3073;42.660;23.316;2023-02-11T11:27:55;95848.28;;;11.00;36.56
6090;BME280;3073;42.660;23.316;2023-02-11T11:30:25;95848.34;;;11.18;35.48
6090;BME280;3073;42.660;23.316;2023-02-11T11:32:53;95843.47;;;10.78;35.46
6090;BME280;3073;42.660;23.316;2023-02-11T11:35:24;95839.53;;;11.70;35.09
6090;BME280;3073;42.660;23.316;2023-02-11T11:37:54;95840.44;;;11.82;33.85
6090;BME280;3073;42.660;23.316;2023-02-11T11:40:25;95838.50;;;12.02;34.39
6090;BME280;3073;42.660;23.316;2023-02-11T11:43:04;95831.88;;;11.70;34.11
6090;BME280;3073;42.660;23.316;2023-02-11T11:45:31;95827.41;;;12.45;33.96
6090;BME280;3073;42.660;23.316;2023-02-11T11:48:01;95822.84;;;12.65;33.68
6090;BME280;3073;42.660;23.316;2023-02-11T11:50:34;95822.28;;;12.63;34.20
6090;BME280;3073;42.660;23.316;2023-02-11T11:53:06;95821.69;;;11.63;34.31
6090;BME280;3073;42.660;23.316;2023-02-11T11:55:40;95818.91;;;12.51;33.92
6090;BME280;3073;42.660;23.316;2023-02-11T11:58:13;95817.00;;;11.60;34.73
6090;BME280;3073;42.660;23.316;2023-02-11T12:00:50;95811.25;;;11.65;34.99
6090;BME280;3073;42.660;23.316;2023-02-11T12:03:42;95811.03;;;11.17;35.40
6090;BME280;3073;42.660;23.316;2023-02-11T12:06:32;95793.91;;;11.24;35.17
6090;BME280;3073;42.660;23.316;2023-02-11T12:09:11;95788.31;;;12.01;34.07
6090;BME280;3073;42.660;23.316;2023-02-11T12:11:56;95791.59;;;11.16;35.20
6090;BME280;3073;42.660;23.316;2023-02-11T12:14:32;95786.38;;;11.29;34.94
6090;BME280;3073;42.660;23.316;2023-02-11T12:17:13;95782.09;;;11.23;34.90
6090;BME280;3073;42.660;23.316;2023-02-11T12:20:02;95775.28;;;9.83;36.00
6090;BME280;3073;42.660;23.316;2023-02-11T12:22:42;95770.81;;;10.74;36.16
6090;BME280;3073;42.660;23.316;2023-02-11T12:25:24;95768.19;;;10.88;35.21
6090;BME280;3073;42.660;23.316;2023-02-11T12:28:00;95762.72;;;11.40;34.44
6090;BME280;3073;42.660;23.316;2023-02-11T12:30:46;95761.19;;;12.00;33.53
6090;BME280;3073;42.660;23.316;2023-02-11T12:33:26;95751.31;;;12.52;32.88
6090;BME280;3073;42.660;23.316;2023-02-11T12:35:58;95757.16;;;12.11;32.72
6090;BME280;3073;42.660;23.316;2023-02-11T12:38:44;95747.09;;;11.48;32.66
6090;BME280;3073;42.660;23.316;2023-02-11T12:41:22;95741.06;;;11.85;31.96
6090;BME280;3073;42.660;23.316;2023-02-11T12:44:15;95735.47;;;10.78;33.56
6090;BME280;3073;42.660;23.316;2023-02-11T12:46:49;95740.59;;;11.52;32.50
6090;BME280;3073;42.660;23.316;2023-02-11T12:49:44;95737.53;;;10.88;33.12
6090;BME280;3073;42.660;23.316;2023-02-11T12:52:24;95736.72;;;8.95;35.92
6090;BME280;3073;42.660;23.316;2023-02-11T12:54:59;95741.81;;;9.47;36.73
6090;BME280;3073;42.660;23.316;2023-02-11T12:57:30;95723.44;;;10.09;35.91
6090;BME280;3073;42.660;23.316;2023-02-11T13:00:02;95723.47;;;10.78;34.51
6090;BME280;3073;42.660;23.316;2023-02-11T13:02:38;95721.75;;;10.72;34.80
6090;BME280;3073;42.660;23.316;2023-02-11T13:05:19;95717.25;;;11.24;34.26
6090;BME280;3073;42.660;23.316;2023-02-11T13:07:51;95721.16;;;11.02;34.58
6090;BME280;3073;42.660;23.316;2023-02-11T13:10:26;95724.94;;;11.24;34.11
6090;BME280;3073;42.660;23.316;2023-02-11T13:12:55;95726.31;;;12.65;33.06
6090;BME280;3073;42.660;23.316;2023-02-11T13:15:46;95718.81;;;12.82;32.04
6090;BME280;3073;42.660;23.316;2023-02-11T13:18:24;95716.00;;;11.51;32.77
6090;BME280;3073;42.660;23.316;2023-02-11T13:20:59;95709.44;;;10.63;34.12
6090;BME280;3073;42.660;23.316;2023-02-11T13:23:43;95702.56;;;11.19;33.80
6090;BME280;3073;42.660;23.316;2023-02-11T13:26:17;95711.31;;;9.92;33.92
6090;BME280;3073;42.660;23.316;2023-02-11T13:28:53;95712.19;;;10.30;35.35
6090;BME280;3073;42.660;23.316;2023-02-11T13:31:22;95703.97;;;10.91;34.00
6090;BME280;3073;42.660;23.316;2023-02-11T13:33:51;95704.03;;;11.70;33.07
6090;BME280;3073;42.660;23.316;2023-02-11T13:36:21;95702.06;;;11.29;33.88
6090;BME280;3073;42.660;23.316;2023-02-11T13:39:01;95702.06;;;10.79;33.61